METAR Formatted Surface Weather Observation
Issued by NWS

Home | Current Version | Previous Version | Text Only | Print | Product List | Glossary On
Versions: 1 2 3
000
SAUS46 KSGX 050454
MTRSAN
METAR KSAN 050451Z 00000KT 10SM CLR 23/17 A2993 RMK AO2 SLP134
T02330172 $



USA.gov is the U.S. government's official web portal to all federal, state and local government web resources and services.